Time;durP1;ratioP1;P1;durP2;ratioP2;P2;SDS_P1;SDS_P2;PMS_P1;PMS_P2;Temp;Humidity;BMP_temperature;BMP_pressure;BME280_temperature;BME280_humidity;BME280_pressure;Samples;Min_cycle;Max_cycle;Signal;HPM_P1;HPM_P2
2023/06/02 00:00:51;;;;;;;4.70;1.23;;;;;;;;;;5008009;28;20192;-62
2023/06/02 00:03:19;;;;;;;6.40;1.47;;;;;;;;;;5010933;28;20614;-63
2023/06/02 00:05:46;;;;;;;6.97;1.60;;;;;;;;;;5009862;28;20266;-63
2023/06/02 00:08:15;;;;;;;3.27;1.20;;;;;;;;;;5010078;28;20196;-63
2023/06/02 00:10:59;;;;;;;5.07;1.60;;;;;;;;;;5017899;28;20179;-63
2023/06/02 00:13:26;;;;;;;2.97;1.30;;;;;;;;;;5010397;28;20184;-62
2023/06/02 00:16:12;;;;;;;3.30;1.30;;;;;;;;;;5010546;28;20275;-62
2023/06/02 00:18:39;;;;;;;4.60;1.43;;;;;;;;;;5009637;28;20223;-62
2023/06/02 00:21:08;;;;;;;5.13;1.43;;;;;;;;;;5007260;28;20903;-63
2023/06/02 00:23:35;;;;;;;5.20;1.80;;;;;;;;;;5008980;28;20188;-62
2023/06/02 00:26:02;;;;;;;4.43;1.40;;;;;;;;;;5009431;28;20239;-63
2023/06/02 00:28:29;;;;;;;5.53;1.60;;;;;;;;;;5008870;28;20243;-62
2023/06/02 00:30:56;;;;;;;5.60;1.30;;;;;;;;;;5009370;28;20202;-63
2023/06/02 00:33:23;;;;;;;4.67;1.33;;;;;;;;;;5009435;28;20227;-63
2023/06/02 00:36:07;;;;;;;6.07;1.30;;;;;;;;;;5008805;28;20187;-62
2023/06/02 00:38:34;;;;;;;4.77;1.40;;;;;;;;;;5009404;28;20207;-62
2023/06/02 00:41:01;;;;;;;4.53;1.40;;;;;;;;;;5010241;28;20195;-62
2023/06/02 00:43:28;;;;;;;7.53;1.57;;;;;;;;;;5007736;28;20196;-62
2023/06/02 00:45:54;;;;;;;8.53;1.30;;;;;;;;;;5009004;28;20200;-62
2023/06/02 00:48:38;;;;;;;3.77;1.17;;;;;;;;;;4990854;28;20663;-62
2023/06/02 00:51:05;;;;;;;4.93;1.50;;;;;;;;;;4996569;28;20226;-63
2023/06/02 00:53:31;;;;;;;4.87;1.57;;;;;;;;;;5008541;28;20196;-62
2023/06/02 00:55:58;;;;;;;5.70;1.47;;;;;;;;;;5009492;28;20214;-62
2023/06/02 00:58:25;;;;;;;4.97;1.67;;;;;;;;;;5008771;28;20279;-63
2023/06/02 01:00:52;;;;;;;5.20;1.20;;;;;;;;;;5008332;28;20190;-62
2023/06/02 01:03:21;;;;;;;5.80;1.40;;;;;;;;;;5009415;28;20678;-62
2023/06/02 01:05:48;;;;;;;2.70;1.40;;;;;;;;;;5008636;28;20678;-63
2023/06/02 01:08:14;;;;;;;4.10;1.00;;;;;;;;;;5008934;28;20188;-62
2023/06/02 01:10:41;;;;;;;6.83;1.60;;;;;;;;;;5017102;28;20188;-63
2023/06/02 01:13:08;;;;;;;3.57;1.13;;;;;;;;;;5018253;28;20191;-62
2023/06/02 01:15:35;;;;;;;3.43;1.20;;;;;;;;;;5008150;28;20648;-62
2023/06/02 01:18:06;;;;;;;6.97;1.50;;;;;;;;;;5006309;28;20223;-62
2023/06/02 01:20:33;;;;;;;3.20;1.23;;;;;;;;;;4991412;28;20220;-62
2023/06/02 01:23:21;;;;;;;5.57;1.50;;;;;;;;;;4991397;28;20188;-62
2023/06/02 01:25:49;;;;;;;5.17;1.40;;;;;;;;;;5006103;28;20222;-62
2023/06/02 01:28:33;;;;;;;5.97;1.47;;;;;;;;;;5008449;28;20176;-62
2023/06/02 01:31:02;;;;;;;6.17;1.40;;;;;;;;;;5008735;28;20196;-62
2023/06/02 01:33:39;;;;;;;7.13;1.40;;;;;;;;;;5008486;28;20278;-65
2023/06/02 01:36:06;;;;;;;2.93;1.30;;;;;;;;;;4992956;28;20253;-63
2023/06/02 01:38:33;;;;;;;3.83;1.40;;;;;;;;;;5007783;28;20271;-63
2023/06/02 01:41:03;;;;;;;4.80;1.50;;;;;;;;;;4990998;28;20203;-62
2023/06/02 02:15:27;;;;;;;7.70;1.43;;;;;;;;;;5012767;28;20250;-62
2023/06/02 02:17:56;;;;;;;4.90;1.60;;;;;;;;;;5012424;28;20323;-62
2023/06/02 02:20:25;;;;;;;4.57;1.40;;;;;;;;;;5009979;28;20274;-62
2023/06/02 02:22:51;;;;;;;4.57;1.33;;;;;;;;;;5011677;28;20210;-62
2023/06/02 02:25:36;;;;;;;7.03;1.43;;;;;;;;;;5011380;28;20207;-62
2023/06/02 02:28:03;;;;;;;3.53;1.10;;;;;;;;;;5002920;28;20204;-62
2023/06/02 02:30:30;;;;;;;4.03;1.33;;;;;;;;;;5002261;28;20196;-63
2023/06/02 02:32:57;;;;;;;4.77;1.00;;;;;;;;;;5012973;28;20222;-62
2023/06/02 02:35:24;;;;;;;4.93;1.20;;;;;;;;;;5008728;28;20291;-63
2023/06/02 02:37:51;;;;;;;6.07;1.53;;;;;;;;;;5010229;28;20582;-62
2023/06/02 02:40:22;;;;;;;5.37;1.57;;;;;;;;;;5010149;28;20239;-62
2023/06/02 02:42:49;;;;;;;3.50;1.30;;;;;;;;;;5009775;28;20246;-62
2023/06/02 02:45:16;;;;;;;6.33;1.13;;;;;;;;;;5011963;28;20192;-61
2023/06/02 02:47:43;;;;;;;3.27;1.20;;;;;;;;;;5009163;28;20692;-63
2023/06/02 02:50:10;;;;;;;1.70;1.10;;;;;;;;;;5011169;28;20267;-61
2023/06/02 02:52:38;;;;;;;2.60;0.90;;;;;;;;;;5011492;28;20196;-62
2023/06/02 02:55:05;;;;;;;2.57;0.80;;;;;;;;;;5010233;28;20255;-62
2023/06/02 02:57:32;;;;;;;4.53;1.33;;;;;;;;;;5009830;28;20207;-62
2023/06/02 02:59:59;;;;;;;7.90;1.60;;;;;;;;;;5008393;28;20196;-61
2023/06/02 03:02:30;;;;;;;2.57;0.97;;;;;;;;;;4992239;28;20215;-62
2023/06/02 03:04:57;;;;;;;3.30;1.00;;;;;;;;;;4991347;28;20205;-61
2023/06/02 03:07:25;;;;;;;5.23;1.20;;;;;;;;;;4992083;28;20565;-62
2023/06/02 03:09:52;;;;;;;4.20;1.10;;;;;;;;;;4997644;28;20283;-62
2023/06/02 03:12:19;;;;;;;3.40;1.20;;;;;;;;;;5028183;28;20223;-62
2023/06/02 03:14:46;;;;;;;4.63;1.13;;;;;;;;;;5015397;28;20315;-62
2023/06/02 03:17:13;;;;;;;3.23;1.40;;;;;;;;;;5009454;28;20200;-62
2023/06/02 03:19:40;;;;;;;3.97;0.90;;;;;;;;;;4990597;28;20188;-62
2023/06/02 03:22:07;;;;;;;3.37;1.10;;;;;;;;;;4997524;28;20193;-62
2023/06/02 03:24:37;;;;;;;3.37;1.13;;;;;;;;;;4993855;28;20226;-62
2023/06/02 03:27:13;;;;;;;5.37;1.17;;;;;;;;;;5009217;28;20941;-62
2023/06/02 03:29:57;;;;;;;3.43;0.90;;;;;;;;;;4996201;28;20187;-62
2023/06/02 03:32:30;;;;;;;4.47;1.17;;;;;;;;;;5007926;28;20612;-62
2023/06/02 03:35:14;;;;;;;2.97;1.13;;;;;;;;;;5010612;28;20574;-60
2023/06/02 03:37:41;;;;;;;2.93;1.00;;;;;;;;;;5009281;28;20283;-64
2023/06/02 03:40:27;;;;;;;3.93;1.10;;;;;;;;;;5009820;28;20183;-61
2023/06/02 03:42:54;;;;;;;3.37;1.10;;;;;;;;;;5004362;28;20200;-62
2023/06/02 03:45:22;;;;;;;2.20;1.10;;;;;;;;;;5008485;28;20200;-62
2023/06/02 03:47:48;;;;;;;4.13;1.10;;;;;;;;;;4991486;28;20706;-62
2023/06/02 03:50:17;;;;;;;5.20;1.20;;;;;;;;;;5009661;28;20200;-62
2023/06/02 03:52:44;;;;;;;5.87;0.90;;;;;;;;;;5010220;28;20283;-62
2023/06/02 03:55:12;;;;;;;2.83;1.00;;;;;;;;;;5009237;28;20671;-64
2023/06/02 03:57:41;;;;;;;3.70;0.90;;;;;;;;;;5008896;28;20196;-63
2023/06/02 04:00:26;;;;;;;1.97;0.90;;;;;;;;;;5010596;28;20992;-62
2023/06/02 04:02:53;;;;;;;2.10;0.77;;;;;;;;;;5010673;28;20196;-62
2023/06/02 04:05:20;;;;;;;4.33;1.23;;;;;;;;;;5010735;28;20622;-62
2023/06/02 04:07:48;;;;;;;2.97;0.87;;;;;;;;;;5008093;28;20219;-63
2023/06/02 04:10:15;;;;;;;2.87;1.27;;;;;;;;;;5011576;28;20196;-62
2023/06/02 04:12:43;;;;;;;1.80;0.80;;;;;;;;;;4993004;28;20296;-62
2023/06/02 04:15:11;;;;;;;4.53;1.10;;;;;;;;;;5010638;28;20219;-63
2023/06/02 04:17:38;;;;;;;4.23;1.10;;;;;;;;;;4992778;28;20699;-62
2023/06/02 04:20:05;;;;;;;4.03;0.83;;;;;;;;;;5006493;28;20300;-62
2023/06/02 04:22:34;;;;;;;2.97;1.00;;;;;;;;;;4992778;28;20279;-62
2023/06/02 04:25:01;;;;;;;2.43;0.90;;;;;;;;;;5008889;28;20202;-62
2023/06/02 04:27:27;;;;;;;5.63;0.90;;;;;;;;;;5009809;28;20220;-62
2023/06/02 04:29:54;;;;;;;2.93;0.97;;;;;;;;;;5003568;28;20200;-63
2023/06/02 04:32:21;;;;;;;3.30;0.83;;;;;;;;;;5007126;28;20192;-62
2023/06/02 04:35:07;;;;;;;4.10;1.10;;;;;;;;;;5002065;28;20291;-62
2023/06/02 04:37:35;;;;;;;2.87;1.20;;;;;;;;;;5004483;28;20196;-62
2023/06/02 04:40:04;;;;;;;2.70;1.10;;;;;;;;;;5014394;28;20199;-60
2023/06/02 04:42:32;;;;;;;4.40;1.10;;;;;;;;;;5016743;28;20197;-60
2023/06/02 04:45:01;;;;;;;3.83;1.00;;;;;;;;;;5016008;28;20196;-60
2023/06/02 04:47:29;;;;;;;3.30;1.07;;;;;;;;;;5010286;28;20695;-61
2023/06/02 04:49:56;;;;;;;3.87;0.90;;;;;;;;;;5012852;28;20210;-60
2023/06/02 04:52:22;;;;;;;4.30;1.37;;;;;;;;;;5007247;28;20318;-60
2023/06/02 04:55:07;;;;;;;3.40;0.90;;;;;;;;;;4999193;28;20180;-60
2023/06/02 04:57:35;;;;;;;3.30;0.80;;;;;;;;;;5010056;28;20602;-60
2023/06/02 05:00:06;;;;;;;4.40;0.83;;;;;;;;;;5011418;28;20193;-60
2023/06/02 05:02:34;;;;;;;3.13;1.00;;;;;;;;;;5010329;28;20254;-61
2023/06/02 05:05:04;;;;;;;1.87;0.73;;;;;;;;;;5007711;28;20290;-61
2023/06/02 05:07:34;;;;;;;3.03;0.80;;;;;;;;;;5020286;28;20671;-61
2023/06/02 05:10:01;;;;;;;4.03;0.90;;;;;;;;;;5008776;28;20199;-62
2023/06/02 05:12:29;;;;;;;2.20;0.77;;;;;;;;;;5006883;28;20656;-62
2023/06/02 05:14:56;;;;;;;5.30;0.80;;;;;;;;;;5003690;28;20283;-62
2023/06/02 05:17:24;;;;;;;3.13;0.60;;;;;;;;;;5009349;28;20251;-62
2023/06/02 05:19:53;;;;;;;4.00;0.77;;;;;;;;;;5008920;28;20196;-61
2023/06/02 05:22:22;;;;;;;3.40;0.80;;;;;;;;;;5008218;28;20188;-62
2023/06/02 05:24:50;;;;;;;4.93;0.70;;;;;;;;;;5009690;28;20195;-62
2023/06/02 05:27:16;;;;;;;5.67;0.83;;;;;;;;;;5008745;28;21450;-62
2023/06/02 05:29:44;;;;;;;3.20;0.77;;;;;;;;;;5008814;28;20239;-61
2023/06/02 05:32:11;;;;;;;1.67;0.80;;;;;;;;;;5006163;28;20660;-61
2023/06/02 05:34:40;;;;;;;2.60;0.80;;;;;;;;;;5008850;28;20175;-62
2023/06/02 05:37:07;;;;;;;3.40;0.80;;;;;;;;;;5002632;28;20243;-63
2023/06/02 05:39:34;;;;;;;1.60;0.50;;;;;;;;;;5003085;28;20197;-61
2023/06/02 05:42:01;;;;;;;2.30;0.70;;;;;;;;;;5007430;28;20290;-62
2023/06/02 05:44:29;;;;;;;13.73;1.37;;;;;;;;;;5009510;28;20214;-62
2023/06/02 05:46:56;;;;;;;3.10;0.80;;;;;;;;;;5007167;28;20223;-63
2023/06/02 05:49:23;;;;;;;2.23;0.70;;;;;;;;;;4987516;28;20194;-62
2023/06/02 05:51:50;;;;;;;2.83;0.80;;;;;;;;;;4989350;28;20229;-61
2023/06/02 05:54:18;;;;;;;4.93;1.00;;;;;;;;;;4989356;28;20199;-61
2023/06/02 05:56:45;;;;;;;3.17;0.60;;;;;;;;;;5011654;28;20779;-62
2023/06/02 05:59:12;;;;;;;4.77;0.80;;;;;;;;;;5008704;28;20547;-62
2023/06/02 06:01:39;;;;;;;1.57;0.50;;;;;;;;;;5017009;28;20294;-62
2023/06/02 06:04:06;;;;;;;3.87;0.77;;;;;;;;;;5020075;28;20232;-62
2023/06/02 06:06:33;;;;;;;1.97;0.80;;;;;;;;;;5004872;28;20219;-62
2023/06/02 06:09:00;;;;;;;2.57;0.60;;;;;;;;;;4992573;28;20207;-62
2023/06/02 06:11:27;;;;;;;2.83;0.70;;;;;;;;;;5023238;28;20642;-61
2023/06/02 06:13:55;;;;;;;2.07;0.60;;;;;;;;;;5024825;28;20677;-61
2023/06/02 06:16:22;;;;;;;2.30;0.57;;;;;;;;;;5007884;28;20220;-61
2023/06/02 06:18:49;;;;;;;2.00;0.50;;;;;;;;;;5007414;28;20232;-62
2023/06/02 06:21:16;;;;;;;2.23;0.40;;;;;;;;;;5007724;28;20224;-62
2023/06/02 06:23:42;;;;;;;2.47;0.60;;;;;;;;;;5007751;28;20185;-62
2023/06/02 06:26:10;;;;;;;3.13;0.73;;;;;;;;;;4991880;28;20200;-62
2023/06/02 06:28:54;;;;;;;2.67;0.70;;;;;;;;;;5008132;28;20183;-62
2023/06/02 06:31:22;;;;;;;1.93;0.60;;;;;;;;;;5008663;28;20939;-61
2023/06/02 06:33:49;;;;;;;3.23;0.93;;;;;;;;;;5005335;28;21581;-63
2023/06/02 06:36:16;;;;;;;1.67;0.70;;;;;;;;;;5003207;28;20576;-61
2023/06/02 06:38:42;;;;;;;1.67;0.53;;;;;;;;;;5000715;28;20196;-61
2023/06/02 06:41:09;;;;;;;1.47;0.50;;;;;;;;;;5000778;28;20196;-63
2023/06/02 06:43:37;;;;;;;2.50;0.60;;;;;;;;;;5007053;28;20251;-64
2023/06/02 06:46:09;;;;;;;1.73;0.60;;;;;;;;;;5001213;28;20275;-63
2023/06/02 06:48:35;;;;;;;2.47;0.53;;;;;;;;;;4985097;28;20319;-63
2023/06/02 06:51:02;;;;;;;3.93;0.73;;;;;;;;;;5005633;28;20240;-62
2023/06/02 06:53:29;;;;;;;1.60;0.50;;;;;;;;;;5004856;28;20885;-62
2023/06/02 06:55:56;;;;;;;2.10;0.60;;;;;;;;;;5000450;28;20485;-62
2023/06/02 06:58:23;;;;;;;3.03;0.90;;;;;;;;;;5007331;28;20642;-62
2023/06/02 07:00:49;;;;;;;2.50;0.70;;;;;;;;;;5011855;28;20279;-62
2023/06/02 07:03:16;;;;;;;1.97;0.70;;;;;;;;;;5013613;28;20567;-61
2023/06/02 07:05:43;;;;;;;5.87;0.67;;;;;;;;;;5002259;28;20247;-62
2023/06/02 07:08:10;;;;;;;4.97;0.90;;;;;;;;;;5012628;28;20219;-64
2023/06/02 07:10:37;;;;;;;2.40;0.60;;;;;;;;;;5019633;28;20183;-61
2023/06/02 07:13:03;;;;;;;2.13;0.63;;;;;;;;;;5014712;28;20246;-61
2023/06/02 07:15:30;;;;;;;6.23;0.80;;;;;;;;;;5011521;28;20195;-61
2023/06/02 07:17:58;;;;;;;1.57;0.47;;;;;;;;;;5012041;28;20224;-61
2023/06/02 07:20:25;;;;;;;4.77;0.50;;;;;;;;;;5010738;28;20203;-61
2023/06/02 07:22:54;;;;;;;7.07;1.43;;;;;;;;;;5011991;28;20262;-62
2023/06/02 07:25:20;;;;;;;1.33;0.30;;;;;;;;;;5011777;28;20270;-61
2023/06/02 07:27:47;;;;;;;3.20;0.50;;;;;;;;;;5011483;28;20212;-62
2023/06/02 07:30:14;;;;;;;1.87;0.60;;;;;;;;;;5010889;28;20192;-62
2023/06/02 07:32:42;;;;;;;3.33;0.57;;;;;;;;;;5012042;28;20200;-61
2023/06/02 07:35:09;;;;;;;4.33;0.60;;;;;;;;;;5011476;28;20404;-63
2023/06/02 07:37:36;;;;;;;1.87;0.50;;;;;;;;;;5011539;28;20176;-60
2023/06/02 07:40:03;;;;;;;5.20;0.70;;;;;;;;;;5011739;28;20224;-59
2023/06/02 07:42:29;;;;;;;3.37;0.63;;;;;;;;;;5011209;28;20286;-61
2023/06/02 07:44:56;;;;;;;1.83;0.47;;;;;;;;;;5010654;28;20583;-62
2023/06/02 07:47:23;;;;;;;3.73;0.63;;;;;;;;;;5011515;28;20212;-61
2023/06/02 07:49:50;;;;;;;3.10;0.67;;;;;;;;;;5011134;28;20287;-60
2023/06/02 07:52:17;;;;;;;2.67;0.43;;;;;;;;;;5011618;28;20647;-61
2023/06/02 07:54:45;;;;;;;1.80;0.50;;;;;;;;;;5011395;28;20610;-62
2023/06/02 07:57:12;;;;;;;1.70;0.47;;;;;;;;;;5011916;28;20555;-62
2023/06/02 07:59:39;;;;;;;2.73;0.40;;;;;;;;;;5011332;28;20564;-62
2023/06/02 08:02:06;;;;;;;2.67;0.50;;;;;;;;;;5011261;28;20403;-62
2023/06/02 08:04:33;;;;;;;5.13;0.63;;;;;;;;;;5010967;28;20196;-60
2023/06/02 08:07:00;;;;;;;3.00;0.40;;;;;;;;;;5010246;28;20228;-60
2023/06/02 08:09:45;;;;;;;2.13;0.50;;;;;;;;;;5009633;28;20737;-62
2023/06/02 08:12:11;;;;;;;2.03;0.60;;;;;;;;;;5019393;28;20203;-61
2023/06/02 08:14:56;;;;;;;1.43;0.40;;;;;;;;;;5009800;28;20184;-62
2023/06/02 08:17:28;;;;;;;1.03;0.47;;;;;;;;;;5011438;28;20228;-61
2023/06/02 08:19:56;;;;;;;0.87;0.50;;;;;;;;;;5003881;28;20243;-61
2023/06/02 08:22:25;;;;;;;1.47;0.60;;;;;;;;;;5008143;28;20220;-63
2023/06/02 08:24:54;;;;;;;2.63;0.60;;;;;;;;;;5007216;28;20219;-59
2023/06/02 08:27:21;;;;;;;1.37;0.60;;;;;;;;;;5012287;28;20213;-59
2023/06/02 08:29:49;;;;;;;2.97;0.60;;;;;;;;;;5008370;28;20529;-58
2023/06/02 08:32:19;;;;;;;3.10;0.80;;;;;;;;;;5008739;28;20191;-61
2023/06/02 08:34:47;;;;;;;2.33;0.47;;;;;;;;;;5008550;28;20298;-60
2023/06/02 08:37:17;;;;;;;4.17;0.80;;;;;;;;;;4979713;28;20265;-61
2023/06/02 08:39:44;;;;;;;2.30;0.60;;;;;;;;;;5004177;28;20304;-61
2023/06/02 08:42:11;;;;;;;1.33;0.50;;;;;;;;;;5006516;28;20216;-61
2023/06/02 08:44:41;;;;;;;2.50;0.67;;;;;;;;;;5006400;28;20194;-60
2023/06/02 08:47:11;;;;;;;1.73;0.70;;;;;;;;;;5005682;28;20189;-63
2023/06/02 08:49:55;;;;;;;1.07;0.50;;;;;;;;;;5006160;28;20168;-62
2023/06/02 08:52:22;;;;;;;1.67;0.50;;;;;;;;;;5009784;28;20560;-61
2023/06/02 08:54:49;;;;;;;3.97;0.60;;;;;;;;;;5002458;28;20652;-63
2023/06/02 08:57:16;;;;;;;2.83;0.60;;;;;;;;;;5008921;28;20283;-62
2023/06/02 09:05:34;;;;;;;5.87;0.60;;;;;;;;;;5508382;23;20226;-75
2023/06/02 09:08:10;;;;;;;1.10;0.50;;;;;;;;;;4975920;28;20245;-75
2023/06/02 09:10:40;;;;;;;2.90;0.40;;;;;;;;;;4968448;28;20192;-74
2023/06/02 09:13:08;;;;;;;7.33;1.10;;;;;;;;;;4969972;28;21075;-74
2023/06/02 09:15:35;;;;;;;4.10;0.90;;;;;;;;;;4971745;28;20200;-73
2023/06/02 09:18:10;;;;;;;0.97;0.40;;;;;;;;;;4989808;28;20196;-73
2023/06/02 09:20:38;;;;;;;6.53;0.73;;;;;;;;;;4980647;28;20246;-72
2023/06/02 09:23:05;;;;;;;5.37;0.50;;;;;;;;;;4961168;28;20189;-72
2023/06/02 09:25:35;;;;;;;1.90;0.40;;;;;;;;;;4977011;28;20189;-78
2023/06/02 09:28:03;;;;;;;1.93;0.60;;;;;;;;;;4969755;28;20217;-73
2023/06/02 09:30:30;;;;;;;2.13;0.43;;;;;;;;;;4973374;28;20212;-75
2023/06/02 09:33:00;;;;;;;1.07;0.30;;;;;;;;;;4973884;28;20560;-73
2023/06/02 09:35:31;;;;;;;2.00;0.50;;;;;;;;;;4961490;28;20252;-70
2023/06/02 09:37:58;;;;;;;1.53;0.50;;;;;;;;;;4970873;28;20247;-74
2023/06/02 09:40:26;;;;;;;1.10;0.50;;;;;;;;;;4970836;28;20289;-73
2023/06/02 09:42:54;;;;;;;1.57;0.70;;;;;;;;;;4984540;28;20209;-73
2023/06/02 09:45:20;;;;;;;2.80;0.40;;;;;;;;;;4951795;28;20260;-72
2023/06/02 09:47:48;;;;;;;3.80;0.87;;;;;;;;;;4969716;28;20299;-73
2023/06/02 09:50:36;;;;;;;3.60;0.73;;;;;;;;;;4938732;28;20227;-72
2023/06/02 09:53:07;;;;;;;1.00;0.50;;;;;;;;;;4953287;28;20239;-74
2023/06/02 09:55:35;;;;;;;1.70;0.40;;;;;;;;;;4968404;28;20560;-74
2023/06/02 09:58:02;;;;;;;3.27;0.50;;;;;;;;;;4969389;28;20209;-77
2023/06/02 10:00:29;;;;;;;4.03;0.60;;;;;;;;;;4967019;28;20703;-69
2023/06/02 10:02:56;;;;;;;1.20;0.50;;;;;;;;;;4967482;28;20229;-68
2023/06/02 10:05:23;;;;;;;1.80;0.60;;;;;;;;;;4974965;28;20228;-68
2023/06/02 10:08:19;;;;;;;0.97;0.50;;;;;;;;;;4973510;28;20209;-67
2023/06/02 10:10:56;;;;;;;4.00;0.50;;;;;;;;;;4952594;28;20225;-69
2023/06/02 10:13:33;;;;;;;1.83;0.40;;;;;;;;;;4966383;28;20653;-70
2023/06/02 10:16:09;;;;;;;4.00;0.63;;;;;;;;;;4966387;28;20255;-70
2023/06/02 10:18:46;;;;;;;1.47;0.40;;;;;;;;;;4978339;28;20248;-68
2023/06/02 10:21:32;;;;;;;1.30;0.47;;;;;;;;;;4970641;28;20211;-68
2023/06/02 10:23:59;;;;;;;3.00;0.53;;;;;;;;;;4964119;28;20617;-68
2023/06/02 10:26:33;;;;;;;2.27;0.50;;;;;;;;;;4972784;28;20177;-68
2023/06/02 10:29:01;;;;;;;1.20;0.37;;;;;;;;;;4991177;28;20217;-69
2023/06/02 10:31:33;;;;;;;1.30;0.33;;;;;;;;;;4991136;28;20592;-69
2023/06/02 10:34:01;;;;;;;2.13;0.60;;;;;;;;;;4992344;28;20185;-68
2023/06/02 10:36:28;;;;;;;1.20;0.47;;;;;;;;;;4995943;28;20203;-69
2023/06/02 10:38:55;;;;;;;3.57;0.83;;;;;;;;;;4991956;28;20255;-69
2023/06/02 10:41:41;;;;;;;1.33;0.40;;;;;;;;;;4995308;28;20220;-66
2023/06/02 10:44:24;;;;;;;3.67;0.50;;;;;;;;;;4957707;28;20178;-66
2023/06/02 10:47:09;;;;;;;1.37;0.50;;;;;;;;;;4963663;28;20683;-67
2023/06/02 10:49:54;;;;;;;2.27;0.37;;;;;;;;;;4995996;28;20188;-67
2023/06/02 10:52:22;;;;;;;1.67;0.50;;;;;;;;;;4992316;28;20189;-68
2023/06/02 10:55:07;;;;;;;3.03;0.90;;;;;;;;;;4984633;28;20706;-69
2023/06/02 10:57:49;;;;;;;2.73;0.83;;;;;;;;;;4994054;28;20690;-68
2023/06/02 11:00:35;;;;;;;2.27;0.60;;;;;;;;;;4992850;28;20185;-69
2023/06/02 11:03:03;;;;;;;1.80;0.50;;;;;;;;;;4985799;28;20715;-68
2023/06/02 11:05:33;;;;;;;1.90;0.60;;;;;;;;;;4977331;28;20236;-69
2023/06/02 11:08:15;;;;;;;2.97;0.50;;;;;;;;;;4988666;28;20315;-69
2023/06/02 11:10:46;;;;;;;3.83;0.60;;;;;;;;;;4982623;28;20287;-68
2023/06/02 11:13:13;;;;;;;1.97;0.50;;;;;;;;;;4987189;28;20200;-68
2023/06/02 11:15:53;;;;;;;10.23;1.13;;;;;;;;;;4977945;28;20663;-69
2023/06/02 11:18:31;;;;;;;5.40;0.97;;;;;;;;;;4991261;28;20594;-68
2023/06/02 11:20:58;;;;;;;1.63;0.50;;;;;;;;;;4976321;28;20867;-68
2023/06/02 11:23:25;;;;;;;3.87;0.63;;;;;;;;;;4976156;28;20229;-69
2023/06/02 11:26:01;;;;;;;1.20;0.50;;;;;;;;;;4975752;28;20672;-68
2023/06/02 11:28:28;;;;;;;3.70;0.60;;;;;;;;;;4975034;28;20731;-68
2023/06/02 11:31:04;;;;;;;4.13;0.60;;;;;;;;;;4974188;28;20197;-68
2023/06/02 11:33:36;;;;;;;1.60;0.40;;;;;;;;;;4975378;28;20777;-68
2023/06/02 11:36:04;;;;;;;0.83;0.40;;;;;;;;;;4975330;28;20213;-68
2023/06/02 11:38:33;;;;;;;3.77;0.37;;;;;;;;;;4975243;28;20719;-68
2023/06/02 11:41:12;;;;;;;1.73;0.40;;;;;;;;;;4975071;28;20208;-68
2023/06/02 11:44:03;;;;;;;3.30;0.70;;;;;;;;;;4974211;28;20627;-68
2023/06/02 11:46:30;;;;;;;6.03;1.20;;;;;;;;;;4974853;28;20197;-68
2023/06/02 11:48:56;;;;;;;1.33;0.43;;;;;;;;;;4973828;28;20252;-68
2023/06/02 11:51:23;;;;;;;1.20;0.50;;;;;;;;;;4974879;28;20310;-68
2023/06/02 11:53:59;;;;;;;13.43;1.63;;;;;;;;;;4975177;28;20208;-68
2023/06/02 11:56:44;;;;;;;1.93;0.43;;;;;;;;;;4974942;28;20305;-68
2023/06/02 11:59:15;;;;;;;2.40;0.73;;;;;;;;;;4974941;28;20185;-68
2023/06/02 12:02:00;;;;;;;2.27;0.43;;;;;;;;;;4974690;28;20236;-68
2023/06/02 12:04:27;;;;;;;0.60;0.33;;;;;;;;;;4974588;28;20181;-68
2023/06/02 12:06:54;;;;;;;1.53;0.60;;;;;;;;;;4974811;28;20201;-68
2023/06/02 12:09:21;;;;;;;1.07;0.50;;;;;;;;;;4974623;28;20227;-68
2023/06/02 12:11:47;;;;;;;2.13;0.60;;;;;;;;;;4956650;28;20273;-68
2023/06/02 12:14:17;;;;;;;7.67;0.90;;;;;;;;;;4955152;28;20194;-65
2023/06/02 12:16:44;;;;;;;4.00;0.53;;;;;;;;;;4955135;28;20716;-66
2023/06/02 12:19:29;;;;;;;3.57;0.73;;;;;;;;;;4954069;28;20629;-66
2023/06/02 12:22:17;;;;;;;2.03;0.47;;;;;;;;;;4953114;29;20588;-66
2023/06/02 12:24:44;;;;;;;2.50;0.73;;;;;;;;;;4955047;28;20593;-66
2023/06/02 12:27:29;;;;;;;2.80;0.50;;;;;;;;;;4954872;29;20194;-66
2023/06/02 12:29:56;;;;;;;1.87;0.60;;;;;;;;;;4955047;28;20208;-65
2023/06/02 12:32:26;;;;;;;1.83;0.80;;;;;;;;;;4951914;28;20210;-66
2023/06/02 12:34:53;;;;;;;1.50;0.60;;;;;;;;;;4953479;28;20653;-65
2023/06/02 12:37:20;;;;;;;1.53;0.60;;;;;;;;;;4953666;28;20190;-66
2023/06/02 12:39:47;;;;;;;2.90;0.60;;;;;;;;;;4953769;28;20526;-66
2023/06/02 12:42:16;;;;;;;1.60;0.60;;;;;;;;;;4954206;28;20202;-66
2023/06/02 12:44:43;;;;;;;1.30;0.60;;;;;;;;;;4954029;28;20213;-66
2023/06/02 12:47:10;;;;;;;3.20;0.70;;;;;;;;;;4953610;28;20194;-68
2023/06/02 12:49:37;;;;;;;2.30;0.67;;;;;;;;;;4953413;28;20210;-66
2023/06/02 12:52:04;;;;;;;1.93;0.60;;;;;;;;;;4953605;28;20186;-65
2023/06/02 12:54:32;;;;;;;5.53;0.77;;;;;;;;;;4954099;28;20301;-66
2023/06/02 12:56:58;;;;;;;1.10;0.70;;;;;;;;;;4953526;28;20197;-66
2023/06/02 12:59:25;;;;;;;0.73;0.40;;;;;;;;;;4952712;29;20198;-66
2023/06/02 13:01:54;;;;;;;2.97;0.77;;;;;;;;;;4953953;28;20220;-66
2023/06/02 13:04:22;;;;;;;5.10;1.00;;;;;;;;;;4952851;28;20277;-67
2023/06/02 13:06:49;;;;;;;3.93;0.60;;;;;;;;;;4953859;28;20237;-66
2023/06/02 13:09:33;;;;;;;1.67;0.50;;;;;;;;;;4953526;28;20213;-67
2023/06/02 13:12:00;;;;;;;3.43;0.90;;;;;;;;;;4953632;29;20229;-66
2023/06/02 13:14:44;;;;;;;2.97;0.67;;;;;;;;;;4953408;28;20204;-66
2023/06/02 13:17:11;;;;;;;1.90;0.80;;;;;;;;;;4953279;28;20252;-66
2023/06/02 13:19:41;;;;;;;5.03;1.07;;;;;;;;;;4953127;28;20268;-66
2023/06/02 13:22:08;;;;;;;3.07;0.70;;;;;;;;;;4953146;28;20222;-66
2023/06/02 13:24:34;;;;;;;1.80;0.60;;;;;;;;;;4952956;28;20245;-66
2023/06/02 13:27:02;;;;;;;2.50;0.60;;;;;;;;;;4952587;28;20193;-66
2023/06/02 13:29:29;;;;;;;9.60;1.60;;;;;;;;;;4952878;28;20249;-66
2023/06/02 13:31:56;;;;;;;3.90;0.70;;;;;;;;;;4953449;28;20178;-66
2023/06/02 13:34:23;;;;;;;0.90;0.50;;;;;;;;;;4953379;28;20665;-66
2023/06/02 13:36:50;;;;;;;2.87;0.57;;;;;;;;;;4952798;28;20194;-66
2023/06/02 13:39:17;;;;;;;0.80;0.40;;;;;;;;;;4951208;28;20278;-66
2023/06/02 13:41:43;;;;;;;3.73;0.80;;;;;;;;;;4951517;29;20217;-66
2023/06/02 13:44:16;;;;;;;1.77;0.60;;;;;;;;;;4951696;28;20190;-66
2023/06/02 13:46:42;;;;;;;3.23;0.70;;;;;;;;;;4953367;28;20198;-66
2023/06/02 13:49:26;;;;;;;1.57;0.50;;;;;;;;;;4953079;28;20299;-66
2023/06/02 13:51:53;;;;;;;0.93;0.50;;;;;;;;;;4952954;28;20201;-66
2023/06/02 13:54:37;;;;;;;3.47;0.63;;;;;;;;;;4952706;28;20174;-66
2023/06/02 13:57:08;;;;;;;3.20;0.70;;;;;;;;;;4953167;28;20206;-66
2023/06/02 13:59:35;;;;;;;3.93;0.70;;;;;;;;;;4953099;28;20183;-67
2023/06/02 14:02:01;;;;;;;3.00;0.60;;;;;;;;;;4951713;28;20221;-66
2023/06/02 14:04:28;;;;;;;4.03;0.70;;;;;;;;;;4952406;28;20650;-67
2023/06/02 14:06:55;;;;;;;3.33;0.77;;;;;;;;;;4951316;29;20233;-67
2023/06/02 14:09:22;;;;;;;2.60;0.50;;;;;;;;;;4952130;28;20210;-67
2023/06/02 14:11:49;;;;;;;0.97;0.60;;;;;;;;;;4950940;28;20204;-66
2023/06/02 14:14:16;;;;;;;6.17;0.83;;;;;;;;;;4951816;28;20863;-67
2023/06/02 14:16:42;;;;;;;1.63;0.60;;;;;;;;;;4952461;28;20194;-66
2023/06/02 14:19:09;;;;;;;1.33;0.67;;;;;;;;;;4952156;28;20214;-66
2023/06/02 14:21:37;;;;;;;2.20;0.60;;;;;;;;;;4953157;28;20557;-66
2023/06/02 14:24:04;;;;;;;2.03;0.60;;;;;;;;;;4952830;28;20190;-66
2023/06/02 14:26:30;;;;;;;2.67;0.77;;;;;;;;;;4952041;28;20565;-67
2023/06/02 14:28:57;;;;;;;5.27;0.77;;;;;;;;;;4952281;28;20699;-66
2023/06/02 14:31:24;;;;;;;2.93;0.67;;;;;;;;;;4951957;28;20232;-66
2023/06/02 14:33:51;;;;;;;3.13;0.60;;;;;;;;;;4951432;28;20248;-66
2023/06/02 14:36:37;;;;;;;4.73;0.80;;;;;;;;;;4952746;28;20178;-66
2023/06/02 14:39:03;;;;;;;4.63;0.83;;;;;;;;;;4952736;28;20218;-66
2023/06/02 14:41:48;;;;;;;2.60;0.73;;;;;;;;;;4952442;29;20178;-66
2023/06/02 14:44:14;;;;;;;3.10;0.80;;;;;;;;;;4951962;28;20199;-66
2023/06/02 14:46:42;;;;;;;2.30;0.73;;;;;;;;;;4951398;29;20195;-66
2023/06/02 14:49:09;;;;;;;4.67;0.80;;;;;;;;;;4939112;28;20206;-66
2023/06/02 14:51:37;;;;;;;3.77;0.80;;;;;;;;;;4952550;28;20190;-66
2023/06/02 14:54:04;;;;;;;2.60;0.70;;;;;;;;;;4952345;28;20588;-66
2023/06/02 14:56:31;;;;;;;1.87;0.50;;;;;;;;;;4952202;28;20191;-66
2023/06/02 14:58:58;;;;;;;3.10;0.80;;;;;;;;;;4950692;28;20199;-66
2023/06/02 15:01:36;;;;;;;1.47;0.80;;;;;;;;;;4950885;29;20189;-66
2023/06/02 15:04:05;;;;;;;2.37;0.80;;;;;;;;;;4951602;28;20679;-66
2023/06/02 15:06:33;;;;;;;2.43;0.80;;;;;;;;;;4951959;28;20303;-66
2023/06/02 15:09:00;;;;;;;3.10;1.00;;;;;;;;;;4951701;28;20244;-67
2023/06/02 15:11:27;;;;;;;0.90;0.60;;;;;;;;;;4952376;28;20299;-66
2023/06/02 15:14:11;;;;;;;1.43;0.53;;;;;;;;;;4952299;28;20186;-67
2023/06/02 15:16:39;;;;;;;4.77;0.87;;;;;;;;;;4951826;28;20253;-66
2023/06/02 15:19:23;;;;;;;3.13;0.60;;;;;;;;;;4951719;28;20596;-66
2023/06/02 15:21:50;;;;;;;1.63;0.60;;;;;;;;;;4955225;28;20190;-66
2023/06/02 15:24:34;;;;;;;1.73;0.40;;;;;;;;;;4955718;28;20197;-66
2023/06/02 15:27:02;;;;;;;1.47;0.50;;;;;;;;;;4955904;28;20273;-66
2023/06/02 15:29:29;;;;;;;5.97;0.80;;;;;;;;;;4955445;28;20277;-66
2023/06/02 15:31:56;;;;;;;1.43;0.50;;;;;;;;;;4953890;28;20285;-66
2023/06/02 15:34:22;;;;;;;0.67;0.30;;;;;;;;;;4954972;28;20198;-66
2023/06/02 15:36:49;;;;;;;1.90;0.70;;;;;;;;;;4954537;28;20660;-66